sensor_id;sensor_type;location;lat;lon;timestamp;temperature;humidity
37380;DHT22;23252;-33.992;18.480;2023-07-20T00:01:33;10.00;99.90
37380;DHT22;23252;-33.992;18.480;2023-07-20T00:04:00;9.90;99.90
37380;DHT22;23252;-33.992;18.480;2023-07-20T00:06:27;9.90;99.90
37380;DHT22;23252;-33.992;18.480;2023-07-20T00:08:54;9.90;99.90
37380;DHT22;23252;-33.992;18.480;2023-07-20T00:11:24;9.90;99.90
37380;DHT22;23252;-33.992;18.480;2023-07-20T00:13:51;9.90;99.90
37380;DHT22;23252;-33.992;18.480;2023-07-20T00:16:17;9.90;99.90
37380;DHT22;23252;-33.992;18.480;2023-07-20T00:18:44;9.90;99.90
37380;DHT22;23252;-33.992;18.480;2023-07-20T00:21:10;10.00;99.90
37380;DHT22;23252;-33.992;18.480;2023-07-20T00:23:38;9.90;99.90
37380;DHT22;23252;-33.992;18.480;2023-07-20T00:26:04;10.00;99.90
37380;DHT22;23252;-33.992;18.480;2023-07-20T00:28:31;10.00;99.90
37380;DHT22;23252;-33.992;18.480;2023-07-20T00:30:59;10.00;99.90
37380;DHT22;23252;-33.992;18.480;2023-07-20T00:33:26;10.10;99.90
37380;DHT22;23252;-33.992;18.480;2023-07-20T00:35:53;10.00;99.90
37380;DHT22;23252;-33.992;18.480;2023-07-20T00:38:19;10.00;99.90
37380;DHT22;23252;-33.992;18.480;2023-07-20T00:40:46;10.00;99.90
37380;DHT22;23252;-33.992;18.480;2023-07-20T00:43:14;10.00;99.90
37380;DHT22;23252;-33.992;18.480;2023-07-20T00:45:41;10.00;99.90
37380;DHT22;23252;-33.992;18.480;2023-07-20T00:48:08;10.00;99.90
37380;DHT22;23252;-33.992;18.480;2023-07-20T00:50:35;10.00;99.90
37380;DHT22;23252;-33.992;18.480;2023-07-20T00:53:03;10.00;99.90
37380;DHT22;23252;-33.992;18.480;2023-07-20T00:55:33;10.00;99.90
37380;DHT22;23252;-33.992;18.480;2023-07-20T00:58:00;10.00;99.90
37380;DHT22;23252;-33.992;18.480;2023-07-20T01:00:27;10.00;99.90
37380;DHT22;23252;-33.992;18.480;2023-07-20T01:02:53;10.00;99.90
37380;DHT22;23252;-33.992;18.480;2023-07-20T01:05:21;10.10;99.90
37380;DHT22;23252;-33.992;18.480;2023-07-20T01:08:01;10.10;99.90
37380;DHT22;23252;-33.992;18.480;2023-07-20T01:10:39;10.10;99.90
37380;DHT22;23252;-33.992;18.480;2023-07-20T01:13:07;10.00;99.90
37380;DHT22;23252;-33.992;18.480;2023-07-20T01:15:35;10.00;99.90
37380;DHT22;23252;-33.992;18.480;2023-07-20T01:18:02;9.90;99.90
37380;DHT22;23252;-33.992;18.480;2023-07-20T01:20:32;9.90;99.90
37380;DHT22;23252;-33.992;18.480;2023-07-20T01:33:08;10.00;99.90
37380;DHT22;23252;-33.992;18.480;2023-07-20T01:35:36;10.10;99.90
37380;DHT22;23252;-33.992;18.480;2023-07-20T01:38:04;10.10;99.90
37380;DHT22;23252;-33.992;18.480;2023-07-20T01:40:31;10.10;99.90
37380;DHT22;23252;-33.992;18.480;2023-07-20T01:42:57;10.10;99.90
37380;DHT22;23252;-33.992;18.480;2023-07-20T01:45:24;10.10;99.90
37380;DHT22;23252;-33.992;18.480;2023-07-20T01:47:51;10.10;99.90
37380;DHT22;23252;-33.992;18.480;2023-07-20T01:50:18;10.00;99.90
37380;DHT22;23252;-33.992;18.480;2023-07-20T01:52:44;10.00;99.90
37380;DHT22;23252;-33.992;18.480;2023-07-20T01:55:11;10.00;99.90
37380;DHT22;23252;-33.992;18.480;2023-07-20T01:57:37;9.90;99.90
37380;DHT22;23252;-33.992;18.480;2023-07-20T02:00:04;9.90;99.90
37380;DHT22;23252;-33.992;18.480;2023-07-20T02:02:31;9.90;99.90
37380;DHT22;23252;-33.992;18.480;2023-07-20T02:04:58;9.90;99.90
37380;DHT22;23252;-33.992;18.480;2023-07-20T02:07:24;9.90;99.90
37380;DHT22;23252;-33.992;18.480;2023-07-20T02:09:51;10.00;99.90
37380;DHT22;23252;-33.992;18.480;2023-07-20T02:12:17;9.90;99.90
37380;DHT22;23252;-33.992;18.480;2023-07-20T02:14:44;9.90;99.90
37380;DHT22;23252;-33.992;18.480;2023-07-20T02:17:10;9.90;99.90
37380;DHT22;23252;-33.992;18.480;2023-07-20T02:19:37;9.80;99.90
37380;DHT22;23252;-33.992;18.480;2023-07-20T02:22:04;9.90;99.90
37380;DHT22;23252;-33.992;18.480;2023-07-20T02:24:32;9.80;99.90
37380;DHT22;23252;-33.992;18.480;2023-07-20T02:26:58;9.80;99.90
37380;DHT22;23252;-33.992;18.480;2023-07-20T02:29:25;9.80;99.90
37380;DHT22;23252;-33.992;18.480;2023-07-20T02:31:51;9.70;99.90
37380;DHT22;23252;-33.992;18.480;2023-07-20T02:34:18;9.70;99.90
37380;DHT22;23252;-33.992;18.480;2023-07-20T02:36:44;9.70;99.90
37380;DHT22;23252;-33.992;18.480;2023-07-20T02:39:12;9.70;99.90
37380;DHT22;23252;-33.992;18.480;2023-07-20T02:41:38;9.70;99.90
37380;DHT22;23252;-33.992;18.480;2023-07-20T02:44:05;9.70;99.90
37380;DHT22;23252;-33.992;18.480;2023-07-20T02:46:31;9.70;99.90
37380;DHT22;23252;-33.992;18.480;2023-07-20T02:48:58;9.70;99.90
37380;DHT22;23252;-33.992;18.480;2023-07-20T02:51:24;9.80;99.90
37380;DHT22;23252;-33.992;18.480;2023-07-20T02:53:51;9.80;99.90
37380;DHT22;23252;-33.992;18.480;2023-07-20T02:56:17;9.80;99.90
37380;DHT22;23252;-33.992;18.480;2023-07-20T02:58:44;9.80;99.90
37380;DHT22;23252;-33.992;18.480;2023-07-20T03:01:11;9.70;99.90
37380;DHT22;23252;-33.992;18.480;2023-07-20T03:03:38;9.70;99.90
37380;DHT22;23252;-33.992;18.480;2023-07-20T03:06:05;9.80;99.90
37380;DHT22;23252;-33.992;18.480;2023-07-20T03:08:31;9.90;99.90
37380;DHT22;23252;-33.992;18.480;2023-07-20T03:10:58;9.90;99.90
37380;DHT22;23252;-33.992;18.480;2023-07-20T03:13:24;9.90;99.90
37380;DHT22;23252;-33.992;18.480;2023-07-20T03:15:52;9.80;99.90
37380;DHT22;23252;-33.992;18.480;2023-07-20T03:18:19;9.90;99.90
37380;DHT22;23252;-33.992;18.480;2023-07-20T03:20:46;9.80;99.90
37380;DHT22;23252;-33.992;18.480;2023-07-20T03:23:12;9.80;99.90
37380;DHT22;23252;-33.992;18.480;2023-07-20T03:25:39;9.90;99.90
37380;DHT22;23252;-33.992;18.480;2023-07-20T03:28:05;9.80;99.90
37380;DHT22;23252;-33.992;18.480;2023-07-20T03:30:32;9.80;99.90
37380;DHT22;23252;-33.992;18.480;2023-07-20T03:32:58;9.80;99.90
37380;DHT22;23252;-33.992;18.480;2023-07-20T03:35:25;9.80;99.90
37380;DHT22;23252;-33.992;18.480;2023-07-20T03:37:51;9.70;99.90
37380;DHT22;23252;-33.992;18.480;2023-07-20T03:40:18;9.70;99.90
37380;DHT22;23252;-33.992;18.480;2023-07-20T03:42:44;9.80;99.90
37380;DHT22;23252;-33.992;18.480;2023-07-20T03:45:11;9.80;99.90
37380;DHT22;23252;-33.992;18.480;2023-07-20T03:47:38;9.70;99.90
37380;DHT22;23252;-33.992;18.480;2023-07-20T03:50:05;9.80;99.90
37380;DHT22;23252;-33.992;18.480;2023-07-20T03:52:31;9.80;99.90
37380;DHT22;23252;-33.992;18.480;2023-07-20T03:54:58;9.70;99.90
37380;DHT22;23252;-33.992;18.480;2023-07-20T03:57:24;9.70;99.90
37380;DHT22;23252;-33.992;18.480;2023-07-20T03:59:51;9.80;99.90
37380;DHT22;23252;-33.992;18.480;2023-07-20T04:02:17;9.80;99.90
37380;DHT22;23252;-33.992;18.480;2023-07-20T04:04:44;9.80;99.90
37380;DHT22;23252;-33.992;18.480;2023-07-20T04:07:10;9.80;99.90
37380;DHT22;23252;-33.992;18.480;2023-07-20T04:09:37;9.80;99.90
37380;DHT22;23252;-33.992;18.480;2023-07-20T04:12:04;9.80;99.90
37380;DHT22;23252;-33.992;18.480;2023-07-20T04:14:30;9.80;99.90
37380;DHT22;23252;-33.992;18.480;2023-07-20T04:16:57;9.80;99.90
37380;DHT22;23252;-33.992;18.480;2023-07-20T04:19:23;9.80;99.90
37380;DHT22;23252;-33.992;18.480;2023-07-20T04:21:50;9.80;99.90
37380;DHT22;23252;-33.992;18.480;2023-07-20T04:24:16;9.80;99.90
37380;DHT22;23252;-33.992;18.480;2023-07-20T04:26:43;9.80;99.90
37380;DHT22;23252;-33.992;18.480;2023-07-20T04:29:09;9.80;99.90
37380;DHT22;23252;-33.992;18.480;2023-07-20T04:31:36;9.70;99.90
37380;DHT22;23252;-33.992;18.480;2023-07-20T04:34:02;9.70;99.90
37380;DHT22;23252;-33.992;18.480;2023-07-20T04:36:32;9.60;99.90
37380;DHT22;23252;-33.992;18.480;2023-07-20T04:39:07;9.60;99.90
37380;DHT22;23252;-33.992;18.480;2023-07-20T04:41:34;9.50;99.90
37380;DHT22;23252;-33.992;18.480;2023-07-20T04:44:00;9.60;99.90
37380;DHT22;23252;-33.992;18.480;2023-07-20T04:46:27;9.50;99.90
37380;DHT22;23252;-33.992;18.480;2023-07-20T04:48:53;9.50;99.90
37380;DHT22;23252;-33.992;18.480;2023-07-20T04:51:20;9.50;99.90
37380;DHT22;23252;-33.992;18.480;2023-07-20T04:53:53;9.50;99.90
37380;DHT22;23252;-33.992;18.480;2023-07-20T04:56:28;9.50;99.90
37380;DHT22;23252;-33.992;18.480;2023-07-20T04:59:23;9.50;99.90
37380;DHT22;23252;-33.992;18.480;2023-07-20T05:01:53;9.50;99.90
37380;DHT22;23252;-33.992;18.480;2023-07-20T05:04:19;9.50;99.90
37380;DHT22;23252;-33.992;18.480;2023-07-20T05:06:49;9.50;99.90
37380;DHT22;23252;-33.992;18.480;2023-07-20T05:09:15;9.60;99.90
37380;DHT22;23252;-33.992;18.480;2023-07-20T05:11:42;9.60;99.90
37380;DHT22;23252;-33.992;18.480;2023-07-20T05:14:10;9.60;99.90
37380;DHT22;23252;-33.992;18.480;2023-07-20T05:16:37;9.60;99.90
37380;DHT22;23252;-33.992;18.480;2023-07-20T05:19:04;9.60;99.90
37380;DHT22;23252;-33.992;18.480;2023-07-20T05:21:30;9.50;99.90
37380;DHT22;23252;-33.992;18.480;2023-07-20T05:23:57;9.60;99.90
37380;DHT22;23252;-33.992;18.480;2023-07-20T05:26:23;9.60;99.90
37380;DHT22;23252;-33.992;18.480;2023-07-20T05:28:49;9.60;99.90
37380;DHT22;23252;-33.992;18.480;2023-07-20T05:31:16;9.60;99.90
37380;DHT22;23252;-33.992;18.480;2023-07-20T05:33:42;9.60;99.90
37380;DHT22;23252;-33.992;18.480;2023-07-20T05:36:09;9.60;99.90
37380;DHT22;23252;-33.992;18.480;2023-07-20T05:38:35;9.60;99.90
37380;DHT22;23252;-33.992;18.480;2023-07-20T05:41:02;9.60;99.90
37380;DHT22;23252;-33.992;18.480;2023-07-20T05:43:29;9.60;99.90
37380;DHT22;23252;-33.992;18.480;2023-07-20T05:45:57;9.60;99.90
37380;DHT22;23252;-33.992;18.480;2023-07-20T05:48:24;9.60;99.90
37380;DHT22;23252;-33.992;18.480;2023-07-20T05:50:50;9.60;99.90
37380;DHT22;23252;-33.992;18.480;2023-07-20T05:53:17;9.60;99.90
37380;DHT22;23252;-33.992;18.480;2023-07-20T05:55:44;9.60;99.90
37380;DHT22;23252;-33.992;18.480;2023-07-20T05:58:10;9.60;99.90
37380;DHT22;23252;-33.992;18.480;2023-07-20T06:00:37;9.60;99.90
37380;DHT22;23252;-33.992;18.480;2023-07-20T06:03:03;9.50;99.90
37380;DHT22;23252;-33.992;18.480;2023-07-20T06:05:30;9.50;99.90
37380;DHT22;23252;-33.992;18.480;2023-07-20T06:07:56;9.60;99.90
37380;DHT22;23252;-33.992;18.480;2023-07-20T06:10:24;9.60;99.90
37380;DHT22;23252;-33.992;18.480;2023-07-20T06:12:50;9.70;99.90
37380;DHT22;23252;-33.992;18.480;2023-07-20T06:15:32;9.80;99.90
37380;DHT22;23252;-33.992;18.480;2023-07-20T06:18:01;9.80;99.90
37380;DHT22;23252;-33.992;18.480;2023-07-20T06:20:27;9.80;99.90
37380;DHT22;23252;-33.992;18.480;2023-07-20T06:22:54;9.80;99.90
37380;DHT22;23252;-33.992;18.480;2023-07-20T06:25:20;9.80;99.90
37380;DHT22;23252;-33.992;18.480;2023-07-20T06:27:48;9.80;99.90
37380;DHT22;23252;-33.992;18.480;2023-07-20T06:30:15;9.90;99.90
37380;DHT22;23252;-33.992;18.480;2023-07-20T06:32:41;9.90;99.90
37380;DHT22;23252;-33.992;18.480;2023-07-20T06:35:08;9.90;99.90
37380;DHT22;23252;-33.992;18.480;2023-07-20T06:37:35;10.00;99.90
37380;DHT22;23252;-33.992;18.480;2023-07-20T06:40:03;10.00;99.90
37380;DHT22;23252;-33.992;18.480;2023-07-20T06:42:30;10.10;99.90
37380;DHT22;23252;-33.992;18.480;2023-07-20T06:44:57;10.10;99.90
37380;DHT22;23252;-33.992;18.480;2023-07-20T06:47:24;10.20;99.90
37380;DHT22;23252;-33.992;18.480;2023-07-20T06:49:51;10.30;99.90
37380;DHT22;23252;-33.992;18.480;2023-07-20T06:52:18;10.30;99.90
37380;DHT22;23252;-33.992;18.480;2023-07-20T06:54:45;10.40;99.90
37380;DHT22;23252;-33.992;18.480;2023-07-20T06:57:11;10.40;99.90
37380;DHT22;23252;-33.992;18.480;2023-07-20T06:59:37;10.40;99.90
37380;DHT22;23252;-33.992;18.480;2023-07-20T07:02:04;10.50;99.90
37380;DHT22;23252;-33.992;18.480;2023-07-20T07:04:32;10.50;99.90
37380;DHT22;23252;-33.992;18.480;2023-07-20T07:06:59;10.70;99.90
37380;DHT22;23252;-33.992;18.480;2023-07-20T07:09:26;10.70;99.90
37380;DHT22;23252;-33.992;18.480;2023-07-20T07:11:52;10.70;99.90
37380;DHT22;23252;-33.992;18.480;2023-07-20T07:14:20;10.80;99.90
37380;DHT22;23252;-33.992;18.480;2023-07-20T07:16:48;10.80;99.90
37380;DHT22;23252;-33.992;18.480;2023-07-20T07:19:14;11.00;99.90
37380;DHT22;23252;-33.992;18.480;2023-07-20T07:21:41;11.00;99.90
37380;DHT22;23252;-33.992;18.480;2023-07-20T07:24:08;11.10;99.90
37380;DHT22;23252;-33.992;18.480;2023-07-20T07:26:36;11.20;99.90
37380;DHT22;23252;-33.992;18.480;2023-07-20T07:29:03;11.10;99.90
37380;DHT22;23252;-33.992;18.480;2023-07-20T07:31:30;11.20;99.90
37380;DHT22;23252;-33.992;18.480;2023-07-20T07:33:57;11.30;99.90
37380;DHT22;23252;-33.992;18.480;2023-07-20T07:36:23;11.30;99.90
37380;DHT22;23252;-33.992;18.480;2023-07-20T07:38:51;11.30;99.90
37380;DHT22;23252;-33.992;18.480;2023-07-20T07:41:17;11.40;99.90
37380;DHT22;23252;-33.992;18.480;2023-07-20T07:43:44;11.40;99.90
37380;DHT22;23252;-33.992;18.480;2023-07-20T07:46:10;11.50;99.90
37380;DHT22;23252;-33.992;18.480;2023-07-20T07:48:37;11.60;99.90
37380;DHT22;23252;-33.992;18.480;2023-07-20T07:51:03;11.60;99.90
37380;DHT22;23252;-33.992;18.480;2023-07-20T07:53:30;11.70;99.90
37380;DHT22;23252;-33.992;18.480;2023-07-20T07:55:56;11.70;99.90
37380;DHT22;23252;-33.992;18.480;2023-07-20T07:58:23;11.80;99.90
37380;DHT22;23252;-33.992;18.480;2023-07-20T08:00:50;11.80;99.90
37380;DHT22;23252;-33.992;18.480;2023-07-20T08:03:16;11.90;99.90
37380;DHT22;23252;-33.992;18.480;2023-07-20T08:05:43;11.90;99.90
37380;DHT22;23252;-33.992;18.480;2023-07-20T08:08:09;12.00;99.90
37380;DHT22;23252;-33.992;18.480;2023-07-20T08:10:36;12.10;99.90
37380;DHT22;23252;-33.992;18.480;2023-07-20T08:13:02;12.10;99.90
37380;DHT22;23252;-33.992;18.480;2023-07-20T08:15:29;12.20;99.90
37380;DHT22;23252;-33.992;18.480;2023-07-20T08:17:55;12.20;99.90
37380;DHT22;23252;-33.992;18.480;2023-07-20T08:20:22;12.20;99.90
37380;DHT22;23252;-33.992;18.480;2023-07-20T08:22:54;12.30;99.90
37380;DHT22;23252;-33.992;18.480;2023-07-20T08:25:20;12.30;99.90
37380;DHT22;23252;-33.992;18.480;2023-07-20T08:27:47;12.40;99.90
37380;DHT22;23252;-33.992;18.480;2023-07-20T08:30:14;12.40;99.90
37380;DHT22;23252;-33.992;18.480;2023-07-20T08:32:40;12.40;99.90
37380;DHT22;23252;-33.992;18.480;2023-07-20T08:35:07;12.50;99.90
37380;DHT22;23252;-33.992;18.480;2023-07-20T08:37:33;12.50;99.90
37380;DHT22;23252;-33.992;18.480;2023-07-20T08:40:00;12.50;99.90
37380;DHT22;23252;-33.992;18.480;2023-07-20T08:42:27;12.60;99.90
37380;DHT22;23252;-33.992;18.480;2023-07-20T08:44:55;12.60;99.90
37380;DHT22;23252;-33.992;18.480;2023-07-20T08:47:22;12.70;99.90
37380;DHT22;23252;-33.992;18.480;2023-07-20T08:49:50;12.70;99.90
37380;DHT22;23252;-33.992;18.480;2023-07-20T08:52:18;12.70;99.90
37380;DHT22;23252;-33.992;18.480;2023-07-20T08:54:44;12.80;99.90
37380;DHT22;23252;-33.992;18.480;2023-07-20T08:57:13;12.80;99.90
37380;DHT22;23252;-33.992;18.480;2023-07-20T08:59:41;12.90;99.90
37380;DHT22;23252;-33.992;18.480;2023-07-20T09:02:09;12.90;99.90
37380;DHT22;23252;-33.992;18.480;2023-07-20T09:04:41;12.90;99.90
37380;DHT22;23252;-33.992;18.480;2023-07-20T09:07:10;13.00;99.90
37380;DHT22;23252;-33.992;18.480;2023-07-20T09:09:41;13.00;99.90
37380;DHT22;23252;-33.992;18.480;2023-07-20T09:12:17;13.10;99.90
37380;DHT22;23252;-33.992;18.480;2023-07-20T09:14:44;13.10;99.90
37380;DHT22;23252;-33.992;18.480;2023-07-20T09:17:14;13.20;99.90
37380;DHT22;23252;-33.992;18.480;2023-07-20T09:19:50;13.20;99.90
37380;DHT22;23252;-33.992;18.480;2023-07-20T09:22:17;13.20;99.90
37380;DHT22;23252;-33.992;18.480;2023-07-20T09:24:44;13.30;99.90
37380;DHT22;23252;-33.992;18.480;2023-07-20T09:27:10;13.40;99.90
37380;DHT22;23252;-33.992;18.480;2023-07-20T09:29:51;13.40;99.90
37380;DHT22;23252;-33.992;18.480;2023-07-20T09:32:21;13.40;99.90
37380;DHT22;23252;-33.992;18.480;2023-07-20T09:34:50;13.50;99.90
37380;DHT22;23252;-33.992;18.480;2023-07-20T09:37:24;13.60;99.90
37380;DHT22;23252;-33.992;18.480;2023-07-20T09:39:53;13.60;99.90
37380;DHT22;23252;-33.992;18.480;2023-07-20T09:42:22;13.70;99.90
37380;DHT22;23252;-33.992;18.480;2023-07-20T09:44:51;13.80;99.90
37380;DHT22;23252;-33.992;18.480;2023-07-20T09:47:24;13.90;99.90
37380;DHT22;23252;-33.992;18.480;2023-07-20T09:49:58;14.00;99.90
37380;DHT22;23252;-33.992;18.480;2023-07-20T09:52:29;13.90;99.90
37380;DHT22;23252;-33.992;18.480;2023-07-20T09:54:57;13.90;99.90
37380;DHT22;23252;-33.992;18.480;2023-07-20T09:57:23;13.90;99.90
37380;DHT22;23252;-33.992;18.480;2023-07-20T09:59:51;13.90;99.90
37380;DHT22;23252;-33.992;18.480;2023-07-20T10:02:24;13.90;99.90
37380;DHT22;23252;-33.992;18.480;2023-07-20T10:04:54;14.10;99.90
37380;DHT22;23252;-33.992;18.480;2023-07-20T10:07:22;14.30;99.90
37380;DHT22;23252;-33.992;18.480;2023-07-20T12:19:10;17.70;99.90
37380;DHT22;23252;-33.992;18.480;2023-07-20T12:21:39;17.60;99.90
37380;DHT22;23252;-33.992;18.480;2023-07-20T12:24:08;17.70;99.90
37380;DHT22;23252;-33.992;18.480;2023-07-20T12:26:37;17.70;99.90
37380;DHT22;23252;-33.992;18.480;2023-07-20T12:29:04;17.70;99.90
37380;DHT22;23252;-33.992;18.480;2023-07-20T12:31:33;17.50;99.90
37380;DHT22;23252;-33.992;18.480;2023-07-20T12:34:00;17.40;99.90
37380;DHT22;23252;-33.992;18.480;2023-07-20T12:36:27;17.30;99.90
37380;DHT22;23252;-33.992;18.480;2023-07-20T12:38:53;17.20;99.90
37380;DHT22;23252;-33.992;18.480;2023-07-20T12:41:20;17.10;99.90
37380;DHT22;23252;-33.992;18.480;2023-07-20T12:43:46;17.00;99.90
37380;DHT22;23252;-33.992;18.480;2023-07-20T12:46:13;16.90;99.90
37380;DHT22;23252;-33.992;18.480;2023-07-20T12:48:40;16.80;99.90
37380;DHT22;23252;-33.992;18.480;2023-07-20T12:51:12;16.70;99.90
37380;DHT22;23252;-33.992;18.480;2023-07-20T12:53:39;16.60;99.90
37380;DHT22;23252;-33.992;18.480;2023-07-20T12:56:05;16.50;99.90
37380;DHT22;23252;-33.992;18.480;2023-07-20T12:58:32;16.40;99.90
37380;DHT22;23252;-33.992;18.480;2023-07-20T13:00:59;16.40;99.90
37380;DHT22;23252;-33.992;18.480;2023-07-20T13:03:25;16.30;99.90
37380;DHT22;23252;-33.992;18.480;2023-07-20T13:05:52;16.40;99.90
37380;DHT22;23252;-33.992;18.480;2023-07-20T13:08:18;16.40;99.90
37380;DHT22;23252;-33.992;18.480;2023-07-20T13:10:45;16.30;99.90
37380;DHT22;23252;-33.992;18.480;2023-07-20T13:13:12;16.30;99.90
37380;DHT22;23252;-33.992;18.480;2023-07-20T13:15:43;16.20;99.90
37380;DHT22;23252;-33.992;18.480;2023-07-20T13:18:10;16.20;99.90
37380;DHT22;23252;-33.992;18.480;2023-07-20T13:20:39;16.10;99.90
37380;DHT22;23252;-33.992;18.480;2023-07-20T13:23:06;16.00;99.90
37380;DHT22;23252;-33.992;18.480;2023-07-20T13:25:33;16.00;99.90
37380;DHT22;23252;-33.992;18.480;2023-07-20T13:27:59;15.90;99.90
37380;DHT22;23252;-33.992;18.480;2023-07-20T13:30:26;15.90;99.90
37380;DHT22;23252;-33.992;18.480;2023-07-20T13:32:53;15.80;99.90
37380;DHT22;23252;-33.992;18.480;2023-07-20T13:35:22;15.80;99.90
37380;DHT22;23252;-33.992;18.480;2023-07-20T13:37:48;15.80;99.90
37380;DHT22;23252;-33.992;18.480;2023-07-20T13:40:16;15.70;99.90
37380;DHT22;23252;-33.992;18.480;2023-07-20T13:42:44;15.60;99.90
37380;DHT22;23252;-33.992;18.480;2023-07-20T13:45:11;15.70;99.90
37380;DHT22;23252;-33.992;18.480;2023-07-20T13:47:37;15.60;99.90
37380;DHT22;23252;-33.992;18.480;2023-07-20T13:50:05;15.60;99.90
37380;DHT22;23252;-33.992;18.480;2023-07-20T13:52:31;15.50;99.90
37380;DHT22;23252;-33.992;18.480;2023-07-20T13:54:58;15.40;99.90
37380;DHT22;23252;-33.992;18.480;2023-07-20T13:57:24;15.40;99.90
37380;DHT22;23252;-33.992;18.480;2023-07-20T13:59:50;15.40;99.90
37380;DHT22;23252;-33.992;18.480;2023-07-20T14:02:17;15.30;99.90
37380;DHT22;23252;-33.992;18.480;2023-07-20T14:04:43;15.30;99.90
37380;DHT22;23252;-33.992;18.480;2023-07-20T14:07:10;15.30;99.90
37380;DHT22;23252;-33.992;18.480;2023-07-20T14:09:37;15.30;99.90
37380;DHT22;23252;-33.992;18.480;2023-07-20T14:12:04;15.30;99.90
37380;DHT22;23252;-33.992;18.480;2023-07-20T14:14:30;15.20;99.90
37380;DHT22;23252;-33.992;18.480;2023-07-20T14:16:57;15.20;99.90
37380;DHT22;23252;-33.992;18.480;2023-07-20T14:19:23;15.10;99.90
37380;DHT22;23252;-33.992;18.480;2023-07-20T14:21:50;15.10;99.90
37380;DHT22;23252;-33.992;18.480;2023-07-20T14:24:17;15.10;99.90
37380;DHT22;23252;-33.992;18.480;2023-07-20T14:26:43;15.00;99.90
37380;DHT22;23252;-33.992;18.480;2023-07-20T14:29:10;15.00;99.90
37380;DHT22;23252;-33.992;18.480;2023-07-20T14:31:36;14.90;99.90
37380;DHT22;23252;-33.992;18.480;2023-07-20T14:34:02;15.00;99.90
37380;DHT22;23252;-33.992;18.480;2023-07-20T14:36:29;14.90;99.90
37380;DHT22;23252;-33.992;18.480;2023-07-20T14:38:56;14.90;99.90
37380;DHT22;23252;-33.992;18.480;2023-07-20T14:41:22;14.90;99.90
37380;DHT22;23252;-33.992;18.480;2023-07-20T14:43:49;14.90;99.90
37380;DHT22;23252;-33.992;18.480;2023-07-20T14:46:15;14.80;99.90
37380;DHT22;23252;-33.992;18.480;2023-07-20T14:48:42;14.80;99.90
37380;DHT22;23252;-33.992;18.480;2023-07-20T14:51:08;14.80;99.90
37380;DHT22;23252;-33.992;18.480;2023-07-20T14:53:34;14.70;99.90
37380;DHT22;23252;-33.992;18.480;2023-07-20T14:56:04;14.70;99.90
37380;DHT22;23252;-33.992;18.480;2023-07-20T14:58:31;14.70;99.90
37380;DHT22;23252;-33.992;18.480;2023-07-20T15:00:58;14.60;99.90
37380;DHT22;23252;-33.992;18.480;2023-07-20T15:03:24;14.60;99.90
37380;DHT22;23252;-33.992;18.480;2023-07-20T15:05:53;14.60;99.90
37380;DHT22;23252;-33.992;18.480;2023-07-20T15:08:29;14.50;99.90
37380;DHT22;23252;-33.992;18.480;2023-07-20T15:10:56;14.40;99.90
37380;DHT22;23252;-33.992;18.480;2023-07-20T15:13:23;14.40;99.90
37380;DHT22;23252;-33.992;18.480;2023-07-20T15:15:49;14.20;99.90
37380;DHT22;23252;-33.992;18.480;2023-07-20T15:18:16;14.20;99.90
37380;DHT22;23252;-33.992;18.480;2023-07-20T15:20:42;14.10;99.90
37380;DHT22;23252;-33.992;18.480;2023-07-20T15:23:14;14.10;99.90
37380;DHT22;23252;-33.992;18.480;2023-07-20T15:25:41;14.00;99.90
37380;DHT22;23252;-33.992;18.480;2023-07-20T15:28:10;13.90;99.90
37380;DHT22;23252;-33.992;18.480;2023-07-20T15:30:37;13.80;99.90
37380;DHT22;23252;-33.992;18.480;2023-07-20T15:33:03;13.70;99.90
37380;DHT22;23252;-33.992;18.480;2023-07-20T15:35:39;13.70;99.90
37380;DHT22;23252;-33.992;18.480;2023-07-20T15:38:05;13.60;99.90
37380;DHT22;23252;-33.992;18.480;2023-07-20T15:40:33;13.50;99.90
37380;DHT22;23252;-33.992;18.480;2023-07-20T15:42:59;13.50;99.90
37380;DHT22;23252;-33.992;18.480;2023-07-20T15:45:28;13.50;99.90
37380;DHT22;23252;-33.992;18.480;2023-07-20T15:47:56;13.40;99.90
37380;DHT22;23252;-33.992;18.480;2023-07-20T15:50:22;13.40;99.90
37380;DHT22;23252;-33.992;18.480;2023-07-20T15:52:49;13.40;99.90
37380;DHT22;23252;-33.992;18.480;2023-07-20T15:55:15;13.30;99.90
37380;DHT22;23252;-33.992;18.480;2023-07-20T15:57:42;13.30;99.90
37380;DHT22;23252;-33.992;18.480;2023-07-20T16:00:09;13.20;99.90
37380;DHT22;23252;-33.992;18.480;2023-07-20T16:02:36;13.20;99.90
37380;DHT22;23252;-33.992;18.480;2023-07-20T16:05:03;13.10;99.90
37380;DHT22;23252;-33.992;18.480;2023-07-20T16:07:30;13.10;99.90
37380;DHT22;23252;-33.992;18.480;2023-07-20T16:09:57;13.10;99.90
37380;DHT22;23252;-33.992;18.480;2023-07-20T16:12:27;13.00;99.90
37380;DHT22;23252;-33.992;18.480;2023-07-20T16:14:57;13.00;99.90
37380;DHT22;23252;-33.992;18.480;2023-07-20T16:17:23;12.90;99.90
37380;DHT22;23252;-33.992;18.480;2023-07-20T16:19:50;12.90;99.90
37380;DHT22;23252;-33.992;18.480;2023-07-20T16:22:16;12.80;99.90
37380;DHT22;23252;-33.992;18.480;2023-07-20T16:24:46;12.80;99.90
37380;DHT22;23252;-33.992;18.480;2023-07-20T16:27:15;12.80;99.90
37380;DHT22;23252;-33.992;18.480;2023-07-20T16:29:42;12.80;99.90
37380;DHT22;23252;-33.992;18.480;2023-07-20T16:32:08;12.70;99.90
37380;DHT22;23252;-33.992;18.480;2023-07-20T16:34:35;12.70;99.90
37380;DHT22;23252;-33.992;18.480;2023-07-20T16:37:05;12.70;99.90
37380;DHT22;23252;-33.992;18.480;2023-07-20T16:39:32;12.70;99.90
37380;DHT22;23252;-33.992;18.480;2023-07-20T16:41:58;12.60;99.90
37380;DHT22;23252;-33.992;18.480;2023-07-20T16:44:25;12.60;99.90
37380;DHT22;23252;-33.992;18.480;2023-07-20T16:46:51;12.60;99.90
37380;DHT22;23252;-33.992;18.480;2023-07-20T16:49:18;12.60;99.90
37380;DHT22;23252;-33.992;18.480;2023-07-20T16:51:47;12.50;99.90
37380;DHT22;23252;-33.992;18.480;2023-07-20T16:54:14;12.50;99.90
37380;DHT22;23252;-33.992;18.480;2023-07-20T16:56:41;12.50;99.90
37380;DHT22;23252;-33.992;18.480;2023-07-20T16:59:07;12.50;99.90
37380;DHT22;23252;-33.992;18.480;2023-07-20T17:01:34;12.40;99.90
37380;DHT22;23252;-33.992;18.480;2023-07-20T17:04:03;12.40;99.90
37380;DHT22;23252;-33.992;18.480;2023-07-20T17:06:30;12.40;99.90
37380;DHT22;23252;-33.992;18.480;2023-07-20T17:08:59;12.40;99.90
37380;DHT22;23252;-33.992;18.480;2023-07-20T17:11:29;12.30;99.90
37380;DHT22;23252;-33.992;18.480;2023-07-20T17:13:59;12.30;99.90
37380;DHT22;23252;-33.992;18.480;2023-07-20T17:16:29;12.30;99.90
37380;DHT22;23252;-33.992;18.480;2023-07-20T17:18:55;12.30;99.90
37380;DHT22;23252;-33.992;18.480;2023-07-20T17:21:22;12.30;99.90
37380;DHT22;23252;-33.992;18.480;2023-07-20T17:23:53;12.30;99.90
37380;DHT22;23252;-33.992;18.480;2023-07-20T17:26:20;12.20;99.90
37380;DHT22;23252;-33.992;18.480;2023-07-20T17:28:50;12.20;99.90